sensor_id;sensor_type;location;lat;lon;timestamp;P1;durP1;ratioP1;P2;durP2;ratioP2
10339;SDS011;5215;48.676;9.022;2022-09-03T00:02:18;1.70;;;1.60;;
10339;SDS011;5215;48.676;9.022;2022-09-03T00:04:50;1.65;;;1.50;;
10339;SDS011;5215;48.676;9.022;2022-09-03T00:07:24;2.78;;;1.88;;
10339;SDS011;5215;48.676;9.022;2022-09-03T00:09:55;2.80;;;1.70;;
10339;SDS011;5215;48.676;9.022;2022-09-03T00:12:28;2.00;;;1.80;;
10339;SDS011;5215;48.676;9.022;2022-09-03T00:15:02;2.05;;;1.95;;
10339;SDS011;5215;48.676;9.022;2022-09-03T00:17:34;3.63;;;1.80;;
10339;SDS011;5215;48.676;9.022;2022-09-03T00:20:06;1.90;;;1.80;;
10339;SDS011;5215;48.676;9.022;2022-09-03T00:22:38;2.08;;;1.90;;
10339;SDS011;5215;48.676;9.022;2022-09-03T00:25:10;2.08;;;1.88;;
10339;SDS011;5215;48.676;9.022;2022-09-03T00:27:39;2.50;;;1.92;;
10339;SDS011;5215;48.676;9.022;2022-09-03T00:30:08;2.58;;;1.80;;
10339;SDS011;5215;48.676;9.022;2022-09-03T00:32:39;1.88;;;1.77;;
10339;SDS011;5215;48.676;9.022;2022-09-03T00:35:13;3.38;;;2.00;;
10339;SDS011;5215;48.676;9.022;2022-09-03T00:37:44;2.17;;;1.90;;
10339;SDS011;5215;48.676;9.022;2022-09-03T00:40:14;2.92;;;1.90;;
10339;SDS011;5215;48.676;9.022;2022-09-03T00:43:00;1.73;;;1.63;;
10339;SDS011;5215;48.676;9.022;2022-09-03T00:45:37;2.28;;;1.90;;
10339;SDS011;5215;48.676;9.022;2022-09-03T00:48:13;3.60;;;1.80;;
10339;SDS011;5215;48.676;9.022;2022-09-03T00:50:50;2.75;;;1.73;;
10339;SDS011;5215;48.676;9.022;2022-09-03T00:53:33;2.90;;;1.80;;
10339;SDS011;5215;48.676;9.022;2022-09-03T00:56:08;1.70;;;1.60;;
10339;SDS011;5215;48.676;9.022;2022-09-03T00:58:45;1.85;;;1.52;;
10339;SDS011;5215;48.676;9.022;2022-09-03T01:01:21;2.00;;;1.90;;
10339;SDS011;5215;48.676;9.022;2022-09-03T01:03:58;3.08;;;2.10;;
10339;SDS011;5215;48.676;9.022;2022-09-03T01:06:36;1.70;;;1.42;;
10339;SDS011;5215;48.676;9.022;2022-09-03T01:09:18;2.53;;;1.60;;
10339;SDS011;5215;48.676;9.022;2022-09-03T01:12:02;1.70;;;1.60;;
10339;SDS011;5215;48.676;9.022;2022-09-03T01:14:42;3.22;;;1.48;;
10339;SDS011;5215;48.676;9.022;2022-09-03T01:17:21;1.60;;;1.50;;
10339;SDS011;5215;48.676;9.022;2022-09-03T01:20:02;2.15;;;1.60;;
10339;SDS011;5215;48.676;9.022;2022-09-03T01:22:46;1.75;;;1.65;;
10339;SDS011;5215;48.676;9.022;2022-09-03T01:25:39;1.55;;;1.45;;
10339;SDS011;5215;48.676;9.022;2022-09-03T01:28:24;1.90;;;1.70;;
10339;SDS011;5215;48.676;9.022;2022-09-03T01:31:01;2.08;;;1.52;;
10339;SDS011;5215;48.676;9.022;2022-09-03T01:33:38;1.83;;;1.73;;
10339;SDS011;5215;48.676;9.022;2022-09-03T01:36:10;3.95;;;1.60;;
10339;SDS011;5215;48.676;9.022;2022-09-03T01:38:46;5.07;;;1.58;;
10339;SDS011;5215;48.676;9.022;2022-09-03T01:41:18;2.45;;;1.65;;
10339;SDS011;5215;48.676;9.022;2022-09-03T01:44:16;1.48;;;1.42;;
10339;SDS011;5215;48.676;9.022;2022-09-03T01:46:54;2.25;;;1.50;;
10339;SDS011;5215;48.676;9.022;2022-09-03T01:49:30;3.22;;;1.38;;
10339;SDS011;5215;48.676;9.022;2022-09-03T01:52:05;2.00;;;1.77;;
10339;SDS011;5215;48.676;9.022;2022-09-03T01:54:42;3.55;;;1.63;;
10339;SDS011;5215;48.676;9.022;2022-09-03T01:57:23;4.20;;;1.70;;
10339;SDS011;5215;48.676;9.022;2022-09-03T02:00:07;2.15;;;1.65;;
10339;SDS011;5215;48.676;9.022;2022-09-03T02:02:37;1.80;;;1.70;;
10339;SDS011;5215;48.676;9.022;2022-09-03T02:05:06;2.85;;;1.70;;
10339;SDS011;5215;48.676;9.022;2022-09-03T02:07:36;2.05;;;1.50;;
10339;SDS011;5215;48.676;9.022;2022-09-03T02:10:05;2.00;;;1.60;;
10339;SDS011;5215;48.676;9.022;2022-09-03T02:12:34;2.85;;;1.77;;
10339;SDS011;5215;48.676;9.022;2022-09-03T02:15:04;1.85;;;1.58;;
10339;SDS011;5215;48.676;9.022;2022-09-03T02:17:36;2.17;;;1.52;;
10339;SDS011;5215;48.676;9.022;2022-09-03T02:20:05;1.45;;;1.35;;
10339;SDS011;5215;48.676;9.022;2022-09-03T02:22:36;1.65;;;1.55;;
10339;SDS011;5215;48.676;9.022;2022-09-03T02:25:03;1.75;;;1.65;;
10339;SDS011;5215;48.676;9.022;2022-09-03T02:27:30;2.33;;;1.90;;
10339;SDS011;5215;48.676;9.022;2022-09-03T02:29:57;1.75;;;1.65;;
10339;SDS011;5215;48.676;9.022;2022-09-03T02:32:26;2.92;;;1.50;;
10339;SDS011;5215;48.676;9.022;2022-09-03T02:34:53;1.73;;;1.63;;
10339;SDS011;5215;48.676;9.022;2022-09-03T02:37:19;2.55;;;1.90;;
10339;SDS011;5215;48.676;9.022;2022-09-03T02:39:47;5.65;;;1.65;;
10339;SDS011;5215;48.676;9.022;2022-09-03T02:42:16;1.73;;;1.58;;
10339;SDS011;5215;48.676;9.022;2022-09-03T02:44:45;2.80;;;1.70;;
10339;SDS011;5215;48.676;9.022;2022-09-03T02:47:14;4.85;;;1.75;;
10339;SDS011;5215;48.676;9.022;2022-09-03T02:49:43;2.35;;;1.88;;
10339;SDS011;5215;48.676;9.022;2022-09-03T02:52:10;1.67;;;1.58;;
10339;SDS011;5215;48.676;9.022;2022-09-03T02:54:37;2.30;;;1.63;;
10339;SDS011;5215;48.676;9.022;2022-09-03T02:57:05;2.58;;;1.80;;
10339;SDS011;5215;48.676;9.022;2022-09-03T02:59:32;2.22;;;1.88;;
10339;SDS011;5215;48.676;9.022;2022-09-03T03:01:59;2.33;;;2.13;;
10339;SDS011;5215;48.676;9.022;2022-09-03T03:04:25;1.90;;;1.80;;
10339;SDS011;5215;48.676;9.022;2022-09-03T03:06:53;2.00;;;1.80;;
10339;SDS011;5215;48.676;9.022;2022-09-03T03:09:20;2.88;;;2.22;;
10339;SDS011;5215;48.676;9.022;2022-09-03T03:11:47;2.33;;;2.13;;
10339;SDS011;5215;48.676;9.022;2022-09-03T03:14:14;2.15;;;2.03;;
10339;SDS011;5215;48.676;9.022;2022-09-03T03:16:41;5.72;;;2.22;;
10339;SDS011;5215;48.676;9.022;2022-09-03T03:19:08;3.55;;;2.30;;
10339;SDS011;5215;48.676;9.022;2022-09-03T03:21:34;3.17;;;2.20;;
10339;SDS011;5215;48.676;9.022;2022-09-03T03:24:03;2.10;;;2.00;;
10339;SDS011;5215;48.676;9.022;2022-09-03T03:26:29;4.20;;;3.50;;
10339;SDS011;5215;48.676;9.022;2022-09-03T03:28:57;2.97;;;2.78;;
10339;SDS011;5215;48.676;9.022;2022-09-03T03:31:25;4.18;;;3.75;;
10339;SDS011;5215;48.676;9.022;2022-09-03T03:33:53;4.68;;;2.70;;
10339;SDS011;5215;48.676;9.022;2022-09-03T03:36:21;2.50;;;2.30;;
10339;SDS011;5215;48.676;9.022;2022-09-03T03:38:51;2.42;;;2.08;;
10339;SDS011;5215;48.676;9.022;2022-09-03T03:41:21;2.25;;;2.03;;
10339;SDS011;5215;48.676;9.022;2022-09-03T03:43:51;2.28;;;2.08;;
10339;SDS011;5215;48.676;9.022;2022-09-03T03:46:18;4.60;;;2.10;;
10339;SDS011;5215;48.676;9.022;2022-09-03T03:48:46;2.38;;;2.17;;
10339;SDS011;5215;48.676;9.022;2022-09-03T03:51:13;2.40;;;2.20;;
10339;SDS011;5215;48.676;9.022;2022-09-03T03:53:39;4.85;;;2.20;;
10339;SDS011;5215;48.676;9.022;2022-09-03T03:56:07;3.00;;;2.53;;
10339;SDS011;5215;48.676;9.022;2022-09-03T03:58:37;5.18;;;3.20;;
10339;SDS011;5215;48.676;9.022;2022-09-03T04:01:07;4.30;;;2.75;;
10339;SDS011;5215;48.676;9.022;2022-09-03T04:03:35;3.15;;;2.40;;
10339;SDS011;5215;48.676;9.022;2022-09-03T04:06:02;2.85;;;2.50;;
10339;SDS011;5215;48.676;9.022;2022-09-03T04:08:32;3.67;;;2.40;;
10339;SDS011;5215;48.676;9.022;2022-09-03T04:11:00;2.10;;;1.90;;
10339;SDS011;5215;48.676;9.022;2022-09-03T04:13:28;2.22;;;2.10;;
10339;SDS011;5215;48.676;9.022;2022-09-03T04:16:00;3.55;;;2.00;;
10339;SDS011;5215;48.676;9.022;2022-09-03T04:18:27;2.42;;;2.20;;
10339;SDS011;5215;48.676;9.022;2022-09-03T04:20:57;2.40;;;2.20;;
10339;SDS011;5215;48.676;9.022;2022-09-03T04:23:26;2.42;;;2.22;;
10339;SDS011;5215;48.676;9.022;2022-09-03T04:25:53;3.15;;;2.40;;
10339;SDS011;5215;48.676;9.022;2022-09-03T04:28:19;3.55;;;2.25;;
10339;SDS011;5215;48.676;9.022;2022-09-03T04:30:47;3.97;;;2.65;;
10339;SDS011;5215;48.676;9.022;2022-09-03T04:33:15;2.50;;;2.30;;
10339;SDS011;5215;48.676;9.022;2022-09-03T04:35:41;2.35;;;2.15;;
10339;SDS011;5215;48.676;9.022;2022-09-03T04:38:08;2.47;;;2.28;;
10339;SDS011;5215;48.676;9.022;2022-09-03T04:40:35;3.30;;;2.42;;
10339;SDS011;5215;48.676;9.022;2022-09-03T04:43:02;4.10;;;2.90;;
10339;SDS011;5215;48.676;9.022;2022-09-03T04:45:28;4.68;;;2.95;;
10339;SDS011;5215;48.676;9.022;2022-09-03T04:47:56;4.07;;;3.20;;
10339;SDS011;5215;48.676;9.022;2022-09-03T04:50:25;5.78;;;3.17;;
10339;SDS011;5215;48.676;9.022;2022-09-03T04:52:52;3.28;;;3.08;;
10339;SDS011;5215;48.676;9.022;2022-09-03T04:55:20;3.90;;;3.28;;
10339;SDS011;5215;48.676;9.022;2022-09-03T04:57:47;3.63;;;3.33;;
10339;SDS011;5215;48.676;9.022;2022-09-03T05:00:13;3.90;;;3.50;;
10339;SDS011;5215;48.676;9.022;2022-09-03T05:02:42;3.10;;;2.90;;
10339;SDS011;5215;48.676;9.022;2022-09-03T05:05:10;3.65;;;3.03;;
10339;SDS011;5215;48.676;9.022;2022-09-03T05:07:38;3.28;;;2.97;;
10339;SDS011;5215;48.676;9.022;2022-09-03T05:10:06;3.53;;;3.22;;
10339;SDS011;5215;48.676;9.022;2022-09-03T05:12:34;3.17;;;2.90;;
10339;SDS011;5215;48.676;9.022;2022-09-03T05:15:00;3.45;;;2.90;;
10339;SDS011;5215;48.676;9.022;2022-09-03T05:17:28;3.28;;;2.97;;
10339;SDS011;5215;48.676;9.022;2022-09-03T05:19:54;3.45;;;2.70;;
10339;SDS011;5215;48.676;9.022;2022-09-03T05:22:22;2.70;;;2.47;;
10339;SDS011;5215;48.676;9.022;2022-09-03T05:24:50;3.00;;;2.80;;
10339;SDS011;5215;48.676;9.022;2022-09-03T05:27:17;2.83;;;2.58;;
10339;SDS011;5215;48.676;9.022;2022-09-03T05:29:43;3.38;;;3.05;;
10339;SDS011;5215;48.676;9.022;2022-09-03T05:32:10;2.97;;;2.70;;
10339;SDS011;5215;48.676;9.022;2022-09-03T05:34:37;2.80;;;2.53;;
10339;SDS011;5215;48.676;9.022;2022-09-03T05:37:04;2.85;;;2.65;;
10339;SDS011;5215;48.676;9.022;2022-09-03T05:39:30;3.30;;;3.00;;
10339;SDS011;5215;48.676;9.022;2022-09-03T05:41:58;3.88;;;3.20;;
10339;SDS011;5215;48.676;9.022;2022-09-03T05:44:25;4.22;;;3.42;;
10339;SDS011;5215;48.676;9.022;2022-09-03T05:46:51;3.92;;;3.00;;
10339;SDS011;5215;48.676;9.022;2022-09-03T05:49:18;3.72;;;3.03;;
10339;SDS011;5215;48.676;9.022;2022-09-03T05:51:44;3.30;;;3.00;;
10339;SDS011;5215;48.676;9.022;2022-09-03T05:54:11;3.60;;;2.88;;
10339;SDS011;5215;48.676;9.022;2022-09-03T05:56:38;3.75;;;3.45;;
10339;SDS011;5215;48.676;9.022;2022-09-03T05:59:08;3.22;;;3.03;;
10339;SDS011;5215;48.676;9.022;2022-09-03T06:01:36;3.70;;;3.40;;
10339;SDS011;5215;48.676;9.022;2022-09-03T06:04:04;3.53;;;3.22;;
10339;SDS011;5215;48.676;9.022;2022-09-03T06:06:32;3.58;;;3.28;;
10339;SDS011;5215;48.676;9.022;2022-09-03T06:09:02;3.67;;;3.38;;
10339;SDS011;5215;48.676;9.022;2022-09-03T06:11:31;3.63;;;3.33;;
10339;SDS011;5215;48.676;9.022;2022-09-03T06:14:00;5.80;;;3.60;;
10339;SDS011;5215;48.676;9.022;2022-09-03T06:16:31;3.38;;;3.08;;
10339;SDS011;5215;48.676;9.022;2022-09-03T06:18:58;7.00;;;3.53;;
10339;SDS011;5215;48.676;9.022;2022-09-03T06:21:25;4.15;;;3.67;;
10339;SDS011;5215;48.676;9.022;2022-09-03T06:23:52;3.97;;;3.25;;
10339;SDS011;5215;48.676;9.022;2022-09-03T06:26:20;3.72;;;3.20;;
10339;SDS011;5215;48.676;9.022;2022-09-03T06:28:48;3.33;;;3.03;;
10339;SDS011;5215;48.676;9.022;2022-09-03T06:31:15;3.20;;;2.90;;
10339;SDS011;5215;48.676;9.022;2022-09-03T06:33:44;3.53;;;3.22;;
10339;SDS011;5215;48.676;9.022;2022-09-03T06:36:13;3.83;;;3.08;;
10339;SDS011;5215;48.676;9.022;2022-09-03T06:38:42;4.40;;;4.00;;
10339;SDS011;5215;48.676;9.022;2022-09-03T06:41:09;3.92;;;3.50;;
10339;SDS011;5215;48.676;9.022;2022-09-03T06:43:38;3.25;;;3.03;;
10339;SDS011;5215;48.676;9.022;2022-09-03T06:46:07;3.53;;;2.83;;
10339;SDS011;5215;48.676;9.022;2022-09-03T06:48:36;3.97;;;3.35;;
10339;SDS011;5215;48.676;9.022;2022-09-03T06:51:07;3.25;;;2.95;;
10339;SDS011;5215;48.676;9.022;2022-09-03T06:53:35;4.30;;;3.47;;
10339;SDS011;5215;48.676;9.022;2022-09-03T06:56:04;4.00;;;2.95;;
10339;SDS011;5215;48.676;9.022;2022-09-03T06:58:33;3.05;;;2.83;;
10339;SDS011;5215;48.676;9.022;2022-09-03T07:01:01;3.80;;;3.30;;
10339;SDS011;5215;48.676;9.022;2022-09-03T07:03:30;2.95;;;2.75;;
10339;SDS011;5215;48.676;9.022;2022-09-03T07:06:00;3.38;;;3.08;;
10339;SDS011;5215;48.676;9.022;2022-09-03T07:08:29;3.95;;;3.08;;
10339;SDS011;5215;48.676;9.022;2022-09-03T07:10:56;4.47;;;2.97;;
10339;SDS011;5215;48.676;9.022;2022-09-03T07:13:23;6.18;;;3.15;;
10339;SDS011;5215;48.676;9.022;2022-09-03T07:15:56;3.13;;;2.90;;
10339;SDS011;5215;48.676;9.022;2022-09-03T07:18:24;5.07;;;3.28;;
10339;SDS011;5215;48.676;9.022;2022-09-03T07:20:50;3.47;;;3.17;;
10339;SDS011;5215;48.676;9.022;2022-09-03T07:23:17;3.35;;;3.08;;
10339;SDS011;5215;48.676;9.022;2022-09-03T07:25:47;3.63;;;3.22;;
10339;SDS011;5215;48.676;9.022;2022-09-03T07:28:18;3.53;;;3.22;;
10339;SDS011;5215;48.676;9.022;2022-09-03T07:30:44;3.78;;;3.47;;
10339;SDS011;5215;48.676;9.022;2022-09-03T07:33:11;3.58;;;3.28;;
10339;SDS011;5215;48.676;9.022;2022-09-03T07:35:38;3.20;;;2.95;;
10339;SDS011;5215;48.676;9.022;2022-09-03T07:38:04;3.10;;;2.80;;
10339;SDS011;5215;48.676;9.022;2022-09-03T07:40:31;3.40;;;2.63;;
10339;SDS011;5215;48.676;9.022;2022-09-03T07:42:59;3.47;;;2.90;;
10339;SDS011;5215;48.676;9.022;2022-09-03T07:45:28;2.42;;;2.30;;
10339;SDS011;5215;48.676;9.022;2022-09-03T07:47:55;4.20;;;2.70;;
10339;SDS011;5215;48.676;9.022;2022-09-03T07:50:22;3.10;;;2.70;;
10339;SDS011;5215;48.676;9.022;2022-09-03T07:52:49;3.10;;;2.70;;
10339;SDS011;5215;48.676;9.022;2022-09-03T07:55:21;2.80;;;2.60;;
10339;SDS011;5215;48.676;9.022;2022-09-03T07:57:48;3.17;;;2.95;;
10339;SDS011;5215;48.676;9.022;2022-09-03T08:00:16;3.60;;;3.00;;
10339;SDS011;5215;48.676;9.022;2022-09-03T08:02:43;2.72;;;2.53;;
10339;SDS011;5215;48.676;9.022;2022-09-03T08:05:09;3.38;;;3.00;;
10339;SDS011;5215;48.676;9.022;2022-09-03T08:07:36;4.13;;;3.72;;
10339;SDS011;5215;48.676;9.022;2022-09-03T08:10:03;4.22;;;3.40;;
10339;SDS011;5215;48.676;9.022;2022-09-03T08:12:30;3.30;;;3.00;;
10339;SDS011;5215;48.676;9.022;2022-09-03T08:14:57;3.25;;;2.55;;
10339;SDS011;5215;48.676;9.022;2022-09-03T08:17:26;2.65;;;2.45;;
10339;SDS011;5215;48.676;9.022;2022-09-03T08:19:52;2.80;;;2.60;;
10339;SDS011;5215;48.676;9.022;2022-09-03T08:22:21;5.28;;;2.40;;
10339;SDS011;5215;48.676;9.022;2022-09-03T08:24:49;4.53;;;2.60;;
10339;SDS011;5215;48.676;9.022;2022-09-03T08:27:19;2.72;;;2.53;;
10339;SDS011;5215;48.676;9.022;2022-09-03T08:29:50;4.28;;;2.42;;
10339;SDS011;5215;48.676;9.022;2022-09-03T08:32:17;2.85;;;2.55;;
10339;SDS011;5215;48.676;9.022;2022-09-03T08:34:45;2.70;;;2.50;;
10339;SDS011;5215;48.676;9.022;2022-09-03T08:37:11;2.35;;;2.15;;
10339;SDS011;5215;48.676;9.022;2022-09-03T08:39:38;3.00;;;2.45;;
10339;SDS011;5215;48.676;9.022;2022-09-03T08:42:10;2.28;;;2.17;;
10339;SDS011;5215;48.676;9.022;2022-09-03T08:44:50;2.30;;;2.10;;
10339;SDS011;5215;48.676;9.022;2022-09-03T08:47:20;1.90;;;1.80;;
10339;SDS011;5215;48.676;9.022;2022-09-03T08:49:54;2.00;;;1.90;;
10339;SDS011;5215;48.676;9.022;2022-09-03T08:52:25;2.33;;;2.10;;
10339;SDS011;5215;48.676;9.022;2022-09-03T08:55:02;2.03;;;1.92;;
10339;SDS011;5215;48.676;9.022;2022-09-03T08:57:39;2.67;;;2.17;;
10339;SDS011;5215;48.676;9.022;2022-09-03T09:00:11;2.13;;;1.98;;
10339;SDS011;5215;48.676;9.022;2022-09-03T09:02:40;2.30;;;2.10;;
10339;SDS011;5215;48.676;9.022;2022-09-03T09:05:22;2.30;;;2.10;;
10339;SDS011;5215;48.676;9.022;2022-09-03T09:07:52;3.08;;;2.20;;
10339;SDS011;5215;48.676;9.022;2022-09-03T09:10:28;2.38;;;2.17;;
10339;SDS011;5215;48.676;9.022;2022-09-03T09:13:04;2.47;;;2.15;;
10339;SDS011;5215;48.676;9.022;2022-09-03T09:15:42;2.38;;;2.17;;
10339;SDS011;5215;48.676;9.022;2022-09-03T09:18:16;2.10;;;2.00;;
10339;SDS011;5215;48.676;9.022;2022-09-03T09:20:52;2.40;;;2.15;;
10339;SDS011;5215;48.676;9.022;2022-09-03T09:23:23;2.20;;;2.00;;
10339;SDS011;5215;48.676;9.022;2022-09-03T09:25:53;3.47;;;2.20;;
10339;SDS011;5215;48.676;9.022;2022-09-03T09:28:23;2.67;;;2.47;;
10339;SDS011;5215;48.676;9.022;2022-09-03T09:30:53;2.60;;;2.40;;
10339;SDS011;5215;48.676;9.022;2022-09-03T09:33:21;2.78;;;2.55;;
10339;SDS011;5215;48.676;9.022;2022-09-03T09:35:50;2.55;;;2.33;;
10339;SDS011;5215;48.676;9.022;2022-09-03T09:38:26;2.30;;;2.00;;
10339;SDS011;5215;48.676;9.022;2022-09-03T09:40:54;2.42;;;2.22;;
10339;SDS011;5215;48.676;9.022;2022-09-03T09:43:22;2.47;;;2.00;;
10339;SDS011;5215;48.676;9.022;2022-09-03T09:45:49;2.90;;;2.15;;
10339;SDS011;5215;48.676;9.022;2022-09-03T09:48:19;3.97;;;3.58;;
10339;SDS011;5215;48.676;9.022;2022-09-03T09:50:52;8.65;;;3.15;;
10339;SDS011;5215;48.676;9.022;2022-09-03T09:53:30;2.75;;;2.55;;
10339;SDS011;5215;48.676;9.022;2022-09-03T09:55:57;2.38;;;2.15;;
10339;SDS011;5215;48.676;9.022;2022-09-03T09:58:25;2.58;;;2.30;;
10339;SDS011;5215;48.676;9.022;2022-09-03T10:00:55;2.05;;;1.80;;
10339;SDS011;5215;48.676;9.022;2022-09-03T10:03:23;2.15;;;1.98;;
10339;SDS011;5215;48.676;9.022;2022-09-03T10:05:59;2.92;;;2.20;;
10339;SDS011;5215;48.676;9.022;2022-09-03T10:08:45;2.42;;;2.33;;
10339;SDS011;5215;48.676;9.022;2022-09-03T10:11:12;2.88;;;2.47;;
10339;SDS011;5215;48.676;9.022;2022-09-03T10:13:39;3.13;;;2.83;;
10339;SDS011;5215;48.676;9.022;2022-09-03T10:16:14;2.90;;;2.70;;
10339;SDS011;5215;48.676;9.022;2022-09-03T10:18:48;2.97;;;2.63;;
10339;SDS011;5215;48.676;9.022;2022-09-03T10:21:25;2.75;;;2.40;;
10339;SDS011;5215;48.676;9.022;2022-09-03T10:23:58;3.00;;;2.80;;
10339;SDS011;5215;48.676;9.022;2022-09-03T10:26:44;3.72;;;2.47;;
10339;SDS011;5215;48.676;9.022;2022-09-03T10:29:11;3.22;;;2.95;;
10339;SDS011;5215;48.676;9.022;2022-09-03T10:31:49;2.30;;;2.20;;
10339;SDS011;5215;48.676;9.022;2022-09-03T10:34:27;3.42;;;2.67;;
10339;SDS011;5215;48.676;9.022;2022-09-03T10:37:04;3.20;;;2.28;;
10339;SDS011;5215;48.676;9.022;2022-09-03T10:39:45;3.38;;;2.60;;
10339;SDS011;5215;48.676;9.022;2022-09-03T10:42:27;2.83;;;2.55;;
10339;SDS011;5215;48.676;9.022;2022-09-03T10:45:06;2.60;;;2.40;;
10339;SDS011;5215;48.676;9.022;2022-09-03T10:50:55;3.22;;;2.92;;
10339;SDS011;5215;48.676;9.022;2022-09-03T10:53:29;3.13;;;2.92;;
10339;SDS011;5215;48.676;9.022;2022-09-03T10:56:06;2.78;;;2.45;;
10339;SDS011;5215;48.676;9.022;2022-09-03T10:58:47;3.70;;;3.35;;
10339;SDS011;5215;48.676;9.022;2022-09-03T11:01:23;2.70;;;2.50;;
10339;SDS011;5215;48.676;9.022;2022-09-03T11:03:57;2.83;;;2.63;;
10339;SDS011;5215;48.676;9.022;2022-09-03T11:06:40;3.30;;;2.75;;
10339;SDS011;5215;48.676;9.022;2022-09-03T11:09:15;2.70;;;2.50;;
10339;SDS011;5215;48.676;9.022;2022-09-03T11:11:47;2.58;;;2.38;;
10339;SDS011;5215;48.676;9.022;2022-09-03T11:14:21;2.75;;;2.55;;
10339;SDS011;5215;48.676;9.022;2022-09-03T11:16:59;3.00;;;2.70;;
10339;SDS011;5215;48.676;9.022;2022-09-03T11:19:31;4.20;;;2.75;;
10339;SDS011;5215;48.676;9.022;2022-09-03T11:22:02;5.15;;;2.30;;
10339;SDS011;5215;48.676;9.022;2022-09-03T11:24:33;2.90;;;2.70;;
10339;SDS011;5215;48.676;9.022;2022-09-03T11:27:04;5.47;;;3.17;;
10339;SDS011;5215;48.676;9.022;2022-09-03T11:29:46;3.35;;;2.95;;
10339;SDS011;5215;48.676;9.022;2022-09-03T11:32:19;2.60;;;2.40;;
10339;SDS011;5215;48.676;9.022;2022-09-03T11:34:50;3.95;;;2.53;;
10339;SDS011;5215;48.676;9.022;2022-09-03T11:37:19;2.90;;;2.53;;
10339;SDS011;5215;48.676;9.022;2022-09-03T11:39:56;4.70;;;3.05;;
10339;SDS011;5215;48.676;9.022;2022-09-03T11:42:28;3.42;;;2.97;;
10339;SDS011;5215;48.676;9.022;2022-09-03T11:45:19;2.78;;;2.58;;
10339;SDS011;5215;48.676;9.022;2022-09-03T11:47:47;3.78;;;2.70;;
10339;SDS011;5215;48.676;9.022;2022-09-03T11:50:17;4.13;;;2.92;;
10339;SDS011;5215;48.676;9.022;2022-09-03T11:52:46;3.35;;;3.05;;
10339;SDS011;5215;48.676;9.022;2022-09-03T11:55:28;2.90;;;2.63;;
10339;SDS011;5215;48.676;9.022;2022-09-03T11:57:58;3.17;;;2.85;;
10339;SDS011;5215;48.676;9.022;2022-09-03T12:00:35;2.72;;;2.30;;
10339;SDS011;5215;48.676;9.022;2022-09-03T12:03:03;4.13;;;2.30;;
10339;SDS011;5215;48.676;9.022;2022-09-03T12:05:32;3.00;;;1.98;;
10339;SDS011;5215;48.676;9.022;2022-09-03T12:11:18;4.95;;;1.70;;
10339;SDS011;5215;48.676;9.022;2022-09-03T12:13:56;2.80;;;1.60;;
10339;SDS011;5215;48.676;9.022;2022-09-03T12:19:26;6.35;;;1.50;;
10339;SDS011;5215;48.676;9.022;2022-09-03T12:22:00;2.83;;;1.38;;
10339;SDS011;5215;48.676;9.022;2022-09-03T12:24:28;2.20;;;1.48;;
10339;SDS011;5215;48.676;9.022;2022-09-03T12:27:01;7.03;;;3.60;;
10339;SDS011;5215;48.676;9.022;2022-09-03T12:29:29;2.92;;;2.17;;
10339;SDS011;5215;48.676;9.022;2022-09-03T12:32:04;2.42;;;2.13;;
10339;SDS011;5215;48.676;9.022;2022-09-03T12:34:32;1.70;;;1.60;;
10339;SDS011;5215;48.676;9.022;2022-09-03T12:36:59;3.75;;;1.40;;
10339;SDS011;5215;48.676;9.022;2022-09-03T12:39:27;1.40;;;1.27;;
10339;SDS011;5215;48.676;9.022;2022-09-03T12:41:57;3.20;;;1.70;;
10339;SDS011;5215;48.676;9.022;2022-09-03T12:44:29;1.80;;;1.50;;
10339;SDS011;5215;48.676;9.022;2022-09-03T12:47:00;3.53;;;1.50;;
10339;SDS011;5215;48.676;9.022;2022-09-03T12:49:33;2.95;;;1.42;;
10339;SDS011;5215;48.676;9.022;2022-09-03T12:52:05;1.88;;;1.55;;
10339;SDS011;5215;48.676;9.022;2022-09-03T12:54:41;1.67;;;1.40;;
10339;SDS011;5215;48.676;9.022;2022-09-03T12:57:13;3.10;;;1.30;;
10339;SDS011;5215;48.676;9.022;2022-09-03T12:59:46;3.10;;;1.70;;
10339;SDS011;5215;48.676;9.022;2022-09-03T13:02:15;1.63;;;1.00;;
10339;SDS011;5215;48.676;9.022;2022-09-03T13:04:45;1.55;;;1.30;;
10339;SDS011;5215;48.676;9.022;2022-09-03T13:07:13;2.03;;;1.00;;
10339;SDS011;5215;48.676;9.022;2022-09-03T13:09:47;0.82;;;0.82;;
10339;SDS011;5215;48.676;9.022;2022-09-03T13:12:23;1.23;;;0.90;;
10339;SDS011;5215;48.676;9.022;2022-09-03T13:14:54;1.92;;;1.02;;
10339;SDS011;5215;48.676;9.022;2022-09-03T13:17:26;2.25;;;1.00;;
10339;SDS011;5215;48.676;9.022;2022-09-03T13:20:11;1.38;;;1.08;;
10339;SDS011;5215;48.676;9.022;2022-09-03T13:23:09;1.48;;;1.05;;
10339;SDS011;5215;48.676;9.022;2022-09-03T13:25:45;0.75;;;0.75;;
10339;SDS011;5215;48.676;9.022;2022-09-03T13:28:26;0.80;;;0.80;;
10339;SDS011;5215;48.676;9.022;2022-09-03T13:31:07;0.80;;;0.80;;
10339;SDS011;5215;48.676;9.022;2022-09-03T13:33:44;1.90;;;1.10;;
10339;SDS011;5215;48.676;9.022;2022-09-03T13:36:16;3.88;;;1.70;;
10339;SDS011;5215;48.676;9.022;2022-09-03T13:38:49;1.23;;;1.13;;
10339;SDS011;5215;48.676;9.022;2022-09-03T13:41:23;1.83;;;1.20;;
10339;SDS011;5215;48.676;9.022;2022-09-03T13:44:02;1.95;;;1.10;;
10339;SDS011;5215;48.676;9.022;2022-09-03T13:46:34;1.27;;;1.17;;
10339;SDS011;5215;48.676;9.022;2022-09-03T13:49:10;1.08;;;0.98;;
10339;SDS011;5215;48.676;9.022;2022-09-03T13:52:03;4.40;;;3.05;;
10339;SDS011;5215;48.676;9.022;2022-09-03T13:54:34;1.10;;;1.10;;
10339;SDS011;5215;48.676;9.022;2022-09-03T13:57:08;2.42;;;1.52;;
10339;SDS011;5215;48.676;9.022;2022-09-03T13:59:50;2.22;;;1.30;;
10339;SDS011;5215;48.676;9.022;2022-09-03T14:02:22;1.50;;;1.30;;
10339;SDS011;5215;48.676;9.022;2022-09-03T14:05:04;1.15;;;1.05;;
10339;SDS011;5215;48.676;9.022;2022-09-03T14:07:41;3.13;;;1.10;;
10339;SDS011;5215;48.676;9.022;2022-09-03T14:10:18;1.48;;;1.10;;
10339;SDS011;5215;48.676;9.022;2022-09-03T14:12:48;2.20;;;1.05;;
10339;SDS011;5215;48.676;9.022;2022-09-03T14:15:21;2.45;;;1.27;;
10339;SDS011;5215;48.676;9.022;2022-09-03T14:17:55;1.83;;;1.17;;
10339;SDS011;5215;48.676;9.022;2022-09-03T14:20:28;1.63;;;1.10;;
10339;SDS011;5215;48.676;9.022;2022-09-03T14:22:59;1.40;;;1.30;;
10339;SDS011;5215;48.676;9.022;2022-09-03T14:25:30;1.40;;;1.30;;
10339;SDS011;5215;48.676;9.022;2022-09-03T14:28:11;1.38;;;1.20;;
10339;SDS011;5215;48.676;9.022;2022-09-03T14:30:42;1.35;;;1.23;;
10339;SDS011;5215;48.676;9.022;2022-09-03T14:33:15;2.25;;;1.20;;
10339;SDS011;5215;48.676;9.022;2022-09-03T14:35:56;1.52;;;1.40;;
10339;SDS011;5215;48.676;9.022;2022-09-03T14:38:47;1.42;;;1.27;;
10339;SDS011;5215;48.676;9.022;2022-09-03T14:41:29;3.33;;;1.35;;
10339;SDS011;5215;48.676;9.022;2022-09-03T14:44:21;1.83;;;1.50;;
10339;SDS011;5215;48.676;9.022;2022-09-03T14:47:05;1.02;;;1.02;;
10339;SDS011;5215;48.676;9.022;2022-09-03T14:52:46;2.65;;;1.10;;
10339;SDS011;5215;48.676;9.022;2022-09-03T14:55:30;3.97;;;1.50;;
10339;SDS011;5215;48.676;9.022;2022-09-03T14:58:20;1.70;;;1.30;;
10339;SDS011;5215;48.676;9.022;2022-09-03T15:00:57;1.45;;;1.35;;
10339;SDS011;5215;48.676;9.022;2022-09-03T15:03:43;1.50;;;1.40;;
10339;SDS011;5215;48.676;9.022;2022-09-03T15:06:27;3.03;;;1.25;;
10339;SDS011;5215;48.676;9.022;2022-09-03T15:11:53;1.40;;;1.30;;
10339;SDS011;5215;48.676;9.022;2022-09-03T15:14:27;1.42;;;1.15;;
10339;SDS011;5215;48.676;9.022;2022-09-03T15:17:00;1.45;;;1.30;;
10339;SDS011;5215;48.676;9.022;2022-09-03T15:19:50;1.20;;;1.15;;
10339;SDS011;5215;48.676;9.022;2022-09-03T15:22:40;1.13;;;1.13;;
10339;SDS011;5215;48.676;9.022;2022-09-03T15:25:24;1.98;;;1.40;;
10339;SDS011;5215;48.676;9.022;2022-09-03T15:28:02;2.08;;;1.15;;
10339;SDS011;5215;48.676;9.022;2022-09-03T15:30:38;1.27;;;1.25;;
10339;SDS011;5215;48.676;9.022;2022-09-03T15:33:11;1.77;;;1.50;;
10339;SDS011;5215;48.676;9.022;2022-09-03T15:36:02;1.52;;;1.42;;
10339;SDS011;5215;48.676;9.022;2022-09-03T15:38:41;2.38;;;1.30;;
10339;SDS011;5215;48.676;9.022;2022-09-03T15:41:17;1.33;;;1.23;;
10339;SDS011;5215;48.676;9.022;2022-09-03T15:43:56;3.05;;;1.60;;
10339;SDS011;5215;48.676;9.022;2022-09-03T15:46:33;1.48;;;1.38;;